Terminal Aerodrome Forecast
Issued by NWS Shreveport, LA

Home | Current Version | Previous Version | Text Only | Print | Product List | Glossary On
Versions: 1 2 3 4 5 6 7 8 9 10 11 12 13 14 15 16 17
000
FTUS44 KSHV 281700
TAFGGG
TAF
KGGG 281725Z 2818/0118 08008KT P6SM OVC090
      TEMPO 2822/0102 SCT025 OVC050
     FM010200 05006KT P6SM OVC025
      TEMPO 0104/0108 5SM -RA BR OVC015
     FM010800 05006KT 3SM RA BR OVC008=

USA.gov is the U.S. government's official web portal to all federal, state and local government web resources and services.